sensor_id;sensor_type;location;lat;lon;timestamp;pressure;altitude;pressure_sealevel;temperature;humidity
44872;BME280;30602;51.060;17.226;2023-01-31T00:02:18;100929.45;;;2.99;92.02
44872;BME280;30602;51.060;17.226;2023-01-31T00:05:40;100942.03;;;2.99;91.89
44872;BME280;30602;51.060;17.226;2023-01-31T00:08:54;100943.09;;;3.03;90.93
44872;BME280;30602;51.060;17.226;2023-01-31T00:12:33;100945.60;;;3.03;90.04
44872;BME280;30602;51.060;17.226;2023-01-31T00:15:42;100952.34;;;3.07;89.92
44872;BME280;30602;51.060;17.226;2023-01-31T00:18:54;100957.56;;;3.09;89.75
44872;BME280;30602;51.060;17.226;2023-01-31T00:22:40;100956.43;;;3.12;89.65
44872;BME280;30602;51.060;17.226;2023-01-31T00:26:28;100961.42;;;3.22;89.02
44872;BME280;30602;51.060;17.226;2023-01-31T00:30:09;100964.68;;;3.22;88.52
44872;BME280;30602;51.060;17.226;2023-01-31T00:33:19;100963.35;;;3.17;87.76
44872;BME280;30602;51.060;17.226;2023-01-31T00:36:33;100971.26;;;3.17;87.79
44872;BME280;30602;51.060;17.226;2023-01-31T00:39:48;100967.41;;;3.18;87.57
44872;BME280;30602;51.060;17.226;2023-01-31T00:43:23;100972.33;;;3.17;87.85
44872;BME280;30602;51.060;17.226;2023-01-31T00:47:06;100974.05;;;3.17;87.41
44872;BME280;30602;51.060;17.226;2023-01-31T00:50:17;100973.71;;;3.16;87.12
44872;BME280;30602;51.060;17.226;2023-01-31T00:54:00;100975.91;;;3.13;86.89
44872;BME280;30602;51.060;17.226;2023-01-31T00:57:08;100979.65;;;3.11;87.03
44872;BME280;30602;51.060;17.226;2023-01-31T01:00:49;100988.30;;;3.05;87.34
44872;BME280;30602;51.060;17.226;2023-01-31T01:03:58;100986.00;;;3.03;87.13
44872;BME280;30602;51.060;17.226;2023-01-31T01:07:09;100996.36;;;3.03;86.77
44872;BME280;30602;51.060;17.226;2023-01-31T01:10:22;100981.24;;;3.00;86.46
44872;BME280;30602;51.060;17.226;2023-01-31T01:14:20;100989.38;;;3.09;85.36
44872;BME280;30602;51.060;17.226;2023-01-31T01:17:28;100998.10;;;3.15;84.82
44872;BME280;30602;51.060;17.226;2023-01-31T01:21:35;101001.68;;;3.16;84.05
44872;BME280;30602;51.060;17.226;2023-01-31T01:25:18;101011.31;;;3.16;83.58
44872;BME280;30602;51.060;17.226;2023-01-31T01:28:28;101012.70;;;3.14;83.07
44872;BME280;30602;51.060;17.226;2023-01-31T01:31:41;101005.09;;;3.06;82.88
44872;BME280;30602;51.060;17.226;2023-01-31T01:35:15;101013.28;;;3.04;83.12
44872;BME280;30602;51.060;17.226;2023-01-31T01:38:21;101019.76;;;3.06;81.76
44872;BME280;30602;51.060;17.226;2023-01-31T01:42:21;101027.09;;;3.04;81.51
44872;BME280;30602;51.060;17.226;2023-01-31T01:45:36;101038.03;;;3.09;79.64
44872;BME280;30602;51.060;17.226;2023-01-31T01:49:33;101034.50;;;3.02;79.63
44872;BME280;30602;51.060;17.226;2023-01-31T01:52:51;101047.70;;;2.95;79.24
44872;BME280;30602;51.060;17.226;2023-01-31T02:02:42;101062.34;;;3.13;77.50
44872;BME280;30602;51.060;17.226;2023-01-31T02:06:41;101056.02;;;3.09;77.96
44872;BME280;30602;51.060;17.226;2023-01-31T02:09:54;101053.26;;;3.15;78.39
44872;BME280;30602;51.060;17.226;2023-01-31T02:13:06;101078.06;;;3.15;78.33
44872;BME280;30602;51.060;17.226;2023-01-31T02:16:15;101077.66;;;3.08;78.84
44872;BME280;30602;51.060;17.226;2023-01-31T02:23:23;101089.92;;;2.99;80.43
44872;BME280;30602;51.060;17.226;2023-01-31T02:33:39;101108.63;;;2.82;81.05
44872;BME280;30602;51.060;17.226;2023-01-31T02:48:50;101158.07;;;2.23;88.20
44872;BME280;30602;51.060;17.226;2023-01-31T02:52:45;101165.30;;;1.84;91.36
44872;BME280;30602;51.060;17.226;2023-01-31T02:56:21;101180.74;;;1.71;93.03
44872;BME280;30602;51.060;17.226;2023-01-31T03:00:08;101172.89;;;1.65;94.48
44872;BME280;30602;51.060;17.226;2023-01-31T03:03:29;101173.62;;;1.62;94.60
44872;BME280;30602;51.060;17.226;2023-01-31T03:11:10;101192.63;;;1.62;95.37
44872;BME280;30602;51.060;17.226;2023-01-31T03:21:43;101190.29;;;1.79;94.54
44872;BME280;30602;51.060;17.226;2023-01-31T03:24:54;101211.34;;;1.80;93.87
44872;BME280;30602;51.060;17.226;2023-01-31T03:28:11;101221.04;;;1.86;92.68
44872;BME280;30602;51.060;17.226;2023-01-31T03:34:39;101226.08;;;1.90;91.68
44872;BME280;30602;51.060;17.226;2023-01-31T03:45:35;101253.65;;;1.98;89.19
44872;BME280;30602;51.060;17.226;2023-01-31T03:49:14;101261.64;;;1.95;89.64
44872;BME280;30602;51.060;17.226;2023-01-31T03:53:09;101248.27;;;1.80;90.05
44872;BME280;30602;51.060;17.226;2023-01-31T03:57:03;101245.76;;;1.61;90.89
44872;BME280;30602;51.060;17.226;2023-01-31T04:00:18;101248.23;;;1.52;91.43
44872;BME280;30602;51.060;17.226;2023-01-31T04:03:48;101276.05;;;1.46;92.30
44872;BME280;30602;51.060;17.226;2023-01-31T04:07:00;101273.91;;;1.40;92.79
44872;BME280;30602;51.060;17.226;2023-01-31T04:10:17;101276.85;;;1.37;93.79
44872;BME280;30602;51.060;17.226;2023-01-31T04:13:30;101271.63;;;1.34;92.92
44872;BME280;30602;51.060;17.226;2023-01-31T04:16:40;101284.70;;;1.48;91.72
44872;BME280;30602;51.060;17.226;2023-01-31T04:20:23;101286.76;;;1.50;90.02
44872;BME280;30602;51.060;17.226;2023-01-31T04:24:29;101271.81;;;1.61;86.93
44872;BME280;30602;51.060;17.226;2023-01-31T04:28:07;101288.71;;;1.81;84.08
44872;BME280;30602;51.060;17.226;2023-01-31T04:31:20;101288.57;;;1.89;82.30
44872;BME280;30602;51.060;17.226;2023-01-31T04:34:42;101295.09;;;1.99;81.13
44872;BME280;30602;51.060;17.226;2023-01-31T04:38:01;101299.70;;;2.04;80.20
44872;BME280;30602;51.060;17.226;2023-01-31T04:41:14;101298.58;;;2.12;78.85
44872;BME280;30602;51.060;17.226;2023-01-31T04:44:25;101300.31;;;2.13;78.48
44872;BME280;30602;51.060;17.226;2023-01-31T04:48:02;101312.77;;;2.16;78.50
44872;BME280;30602;51.060;17.226;2023-01-31T04:51:08;101317.93;;;2.20;78.97
44872;BME280;30602;51.060;17.226;2023-01-31T04:54:22;101329.85;;;2.23;78.20
44872;BME280;30602;51.060;17.226;2023-01-31T04:57:57;101329.84;;;2.24;78.34
44872;BME280;30602;51.060;17.226;2023-01-31T05:01:14;101323.27;;;2.30;78.09
44872;BME280;30602;51.060;17.226;2023-01-31T05:04:23;101319.33;;;2.24;78.44
44872;BME280;30602;51.060;17.226;2023-01-31T05:08:07;101319.47;;;2.27;79.48
44872;BME280;30602;51.060;17.226;2023-01-31T05:11:41;101313.03;;;2.21;79.82
44872;BME280;30602;51.060;17.226;2023-01-31T05:14:51;101316.94;;;2.20;79.58
44872;BME280;30602;51.060;17.226;2023-01-31T05:18:29;101317.72;;;2.19;80.24
44872;BME280;30602;51.060;17.226;2023-01-31T05:22:12;101326.66;;;2.16;80.91
44872;BME280;30602;51.060;17.226;2023-01-31T05:25:23;101330.92;;;2.11;81.45
44872;BME280;30602;51.060;17.226;2023-01-31T05:28:54;101341.17;;;2.10;81.91
44872;BME280;30602;51.060;17.226;2023-01-31T05:32:02;101351.51;;;2.02;81.77
44872;BME280;30602;51.060;17.226;2023-01-31T05:35:29;101344.12;;;1.97;81.56
44872;BME280;30602;51.060;17.226;2023-01-31T05:38:38;101360.71;;;2.01;82.33
44872;BME280;30602;51.060;17.226;2023-01-31T05:41:47;101368.85;;;2.03;82.76
44872;BME280;30602;51.060;17.226;2023-01-31T05:44:57;101380.78;;;1.98;83.00
44872;BME280;30602;51.060;17.226;2023-01-31T05:48:40;101387.34;;;2.07;82.75
44872;BME280;30602;51.060;17.226;2023-01-31T05:52:14;101394.46;;;2.10;82.54
44872;BME280;30602;51.060;17.226;2023-01-31T05:55:55;101402.59;;;2.12;83.23
44872;BME280;30602;51.060;17.226;2023-01-31T05:59:05;101403.76;;;2.12;83.01
44872;BME280;30602;51.060;17.226;2023-01-31T06:02:48;101403.27;;;2.11;82.98
44872;BME280;30602;51.060;17.226;2023-01-31T06:06:19;101408.00;;;2.11;82.90
44872;BME280;30602;51.060;17.226;2023-01-31T06:09:45;101415.91;;;2.09;82.52
44872;BME280;30602;51.060;17.226;2023-01-31T06:12:53;101407.52;;;2.07;81.77
44872;BME280;30602;51.060;17.226;2023-01-31T06:16:50;101416.52;;;2.11;81.74
44872;BME280;30602;51.060;17.226;2023-01-31T06:20:03;101429.69;;;2.06;81.25
44872;BME280;30602;51.060;17.226;2023-01-31T06:23:11;101433.27;;;2.06;81.22
44872;BME280;30602;51.060;17.226;2023-01-31T06:26:23;101444.13;;;2.08;78.29
44872;BME280;30602;51.060;17.226;2023-01-31T06:29:33;101447.73;;;2.13;77.62
44872;BME280;30602;51.060;17.226;2023-01-31T06:32:50;101449.55;;;2.15;76.24
44872;BME280;30602;51.060;17.226;2023-01-31T06:36:34;101443.23;;;2.19;75.39
44872;BME280;30602;51.060;17.226;2023-01-31T06:39:46;101446.20;;;2.24;74.34
44872;BME280;30602;51.060;17.226;2023-01-31T06:43:27;101438.50;;;2.22;74.35
44872;BME280;30602;51.060;17.226;2023-01-31T06:46:35;101447.62;;;2.27;73.94
44872;BME280;30602;51.060;17.226;2023-01-31T06:49:44;101452.63;;;2.33;72.23
44872;BME280;30602;51.060;17.226;2023-01-31T06:53:09;101450.21;;;2.35;72.74
44872;BME280;30602;51.060;17.226;2023-01-31T06:56:52;101458.75;;;2.32;73.27
44872;BME280;30602;51.060;17.226;2023-01-31T07:00:04;101465.67;;;2.28;75.07
44872;BME280;30602;51.060;17.226;2023-01-31T07:03:15;101472.52;;;2.23;76.36
44872;BME280;30602;51.060;17.226;2023-01-31T07:06:28;101469.37;;;2.20;77.02
44872;BME280;30602;51.060;17.226;2023-01-31T07:09:37;101485.21;;;2.15;77.39
44872;BME280;30602;51.060;17.226;2023-01-31T07:12:45;101487.73;;;2.12;78.94
44872;BME280;30602;51.060;17.226;2023-01-31T07:15:54;101488.22;;;2.17;79.72
44872;BME280;30602;51.060;17.226;2023-01-31T07:19:34;101502.73;;;2.11;80.05
44872;BME280;30602;51.060;17.226;2023-01-31T07:22:44;101501.00;;;2.04;80.67
44872;BME280;30602;51.060;17.226;2023-01-31T07:26:11;101508.47;;;2.13;80.80
44872;BME280;30602;51.060;17.226;2023-01-31T07:29:44;101510.12;;;2.10;81.06
44872;BME280;30602;51.060;17.226;2023-01-31T07:32:52;101516.19;;;2.17;81.37
44872;BME280;30602;51.060;17.226;2023-01-31T07:36:03;101516.98;;;2.12;81.41
44872;BME280;30602;51.060;17.226;2023-01-31T07:39:11;101529.97;;;2.15;81.50
44872;BME280;30602;51.060;17.226;2023-01-31T07:42:48;101539.09;;;2.27;81.26
44872;BME280;30602;51.060;17.226;2023-01-31T07:46:31;101544.87;;;2.37;81.47
44872;BME280;30602;51.060;17.226;2023-01-31T07:49:39;101546.49;;;2.41;81.64
44872;BME280;30602;51.060;17.226;2023-01-31T07:52:50;101545.61;;;2.28;81.46
44872;BME280;30602;51.060;17.226;2023-01-31T07:56:22;101544.11;;;2.29;81.92
44872;BME280;30602;51.060;17.226;2023-01-31T08:00:03;101548.71;;;2.32;82.14
44872;BME280;30602;51.060;17.226;2023-01-31T08:03:28;101541.30;;;2.25;81.42
44872;BME280;30602;51.060;17.226;2023-01-31T08:06:40;101553.92;;;2.30;81.95
44872;BME280;30602;51.060;17.226;2023-01-31T08:10:33;101554.51;;;2.26;82.16
44872;BME280;30602;51.060;17.226;2023-01-31T08:13:42;101551.33;;;2.32;80.91
44872;BME280;30602;51.060;17.226;2023-01-31T08:16:54;101554.96;;;2.27;80.76
44872;BME280;30602;51.060;17.226;2023-01-31T08:20:35;101545.99;;;2.33;80.61
44872;BME280;30602;51.060;17.226;2023-01-31T08:23:46;101556.53;;;2.36;80.03
44872;BME280;30602;51.060;17.226;2023-01-31T08:26:58;101558.46;;;2.34;78.54
44872;BME280;30602;51.060;17.226;2023-01-31T08:30:33;101557.45;;;2.40;78.17
44872;BME280;30602;51.060;17.226;2023-01-31T08:33:55;101558.09;;;2.48;78.57
44872;BME280;30602;51.060;17.226;2023-01-31T08:37:03;101558.08;;;2.65;77.58
44872;BME280;30602;51.060;17.226;2023-01-31T08:40:23;101557.19;;;2.73;77.42
44872;BME280;30602;51.060;17.226;2023-01-31T08:44:08;101558.59;;;2.81;77.53
44872;BME280;30602;51.060;17.226;2023-01-31T08:47:18;101565.20;;;2.74;77.92
44872;BME280;30602;51.060;17.226;2023-01-31T08:50:45;101564.43;;;2.75;78.70
44872;BME280;30602;51.060;17.226;2023-01-31T08:53:54;101566.32;;;2.78;78.70
44872;BME280;30602;51.060;17.226;2023-01-31T08:57:54;101571.70;;;2.77;78.62
44872;BME280;30602;51.060;17.226;2023-01-31T09:01:07;101581.12;;;2.83;78.94
44872;BME280;30602;51.060;17.226;2023-01-31T09:04:18;101578.04;;;2.78;78.70
44872;BME280;30602;51.060;17.226;2023-01-31T09:07:28;101585.85;;;2.87;79.35
44872;BME280;30602;51.060;17.226;2023-01-31T09:11:12;101599.78;;;2.86;79.69
44872;BME280;30602;51.060;17.226;2023-01-31T09:14:26;101598.02;;;2.90;79.93
44872;BME280;30602;51.060;17.226;2023-01-31T09:17:50;101604.46;;;2.85;79.86
44872;BME280;30602;51.060;17.226;2023-01-31T09:24:17;101604.95;;;2.90;80.40
44872;BME280;30602;51.060;17.226;2023-01-31T09:27:47;101602.74;;;2.94;80.23
44872;BME280;30602;51.060;17.226;2023-01-31T09:31:00;101608.55;;;3.01;78.36
44872;BME280;30602;51.060;17.226;2023-01-31T09:34:54;101602.52;;;3.10;78.31
44872;BME280;30602;51.060;17.226;2023-01-31T09:38:20;101609.69;;;3.20;78.38
44872;BME280;30602;51.060;17.226;2023-01-31T09:41:40;101609.44;;;3.27;76.95
44872;BME280;30602;51.060;17.226;2023-01-31T09:45:32;101601.52;;;3.26;76.59
44872;BME280;30602;51.060;17.226;2023-01-31T09:48:44;101610.15;;;3.29;76.10
44872;BME280;30602;51.060;17.226;2023-01-31T09:52:00;101605.95;;;3.31;75.59
44872;BME280;30602;51.060;17.226;2023-01-31T09:59:06;101601.37;;;3.52;75.27
44872;BME280;30602;51.060;17.226;2023-01-31T10:12:25;101591.77;;;3.47;76.70
44872;BME280;30602;51.060;17.226;2023-01-31T10:15:45;101578.47;;;3.49;77.47
44872;BME280;30602;51.060;17.226;2023-01-31T10:19:25;101581.66;;;3.60;78.11
44872;BME280;30602;51.060;17.226;2023-01-31T10:22:45;101577.48;;;3.66;79.77
44872;BME280;30602;51.060;17.226;2023-01-31T10:26:05;101567.01;;;3.44;80.85
44872;BME280;30602;51.060;17.226;2023-01-31T10:29:54;101586.03;;;3.44;81.73
44872;BME280;30602;51.060;17.226;2023-01-31T10:36:32;101581.81;;;3.38;81.42
44872;BME280;30602;51.060;17.226;2023-01-31T10:39:55;101578.06;;;3.42;81.64
44872;BME280;30602;51.060;17.226;2023-01-31T10:43:15;101568.20;;;3.49;81.25
44872;BME280;30602;51.060;17.226;2023-01-31T10:46:28;101557.55;;;3.60;80.11
44872;BME280;30602;51.060;17.226;2023-01-31T10:49:44;101569.86;;;3.58;78.49
44872;BME280;30602;51.060;17.226;2023-01-31T10:53:08;101572.03;;;3.68;78.77
44872;BME280;30602;51.060;17.226;2023-01-31T10:56:36;101564.87;;;3.62;78.67
44872;BME280;30602;51.060;17.226;2023-01-31T10:59:44;101573.79;;;3.58;79.07
44872;BME280;30602;51.060;17.226;2023-01-31T11:02:57;101570.10;;;3.61;79.25
44872;BME280;30602;51.060;17.226;2023-01-31T11:06:09;101567.80;;;3.62;79.97
44872;BME280;30602;51.060;17.226;2023-01-31T11:09:22;101566.73;;;3.72;80.52
44872;BME280;30602;51.060;17.226;2023-01-31T11:13:19;101566.49;;;3.76;80.01
44872;BME280;30602;51.060;17.226;2023-01-31T11:16:36;101553.78;;;3.90;79.39
44872;BME280;30602;51.060;17.226;2023-01-31T11:19:54;101543.35;;;3.86;80.37
44872;BME280;30602;51.060;17.226;2023-01-31T11:23:15;101534.65;;;4.02;80.30
44872;BME280;30602;51.060;17.226;2023-01-31T11:27:05;101535.06;;;4.01;80.64
44872;BME280;30602;51.060;17.226;2023-01-31T11:37:59;101517.06;;;3.98;80.43
44872;BME280;30602;51.060;17.226;2023-01-31T11:44:29;101494.32;;;3.88;80.17
44872;BME280;30602;51.060;17.226;2023-01-31T11:51:32;101498.53;;;3.98;80.52
44872;BME280;30602;51.060;17.226;2023-01-31T11:54:47;101487.34;;;3.93;79.79
44872;BME280;30602;51.060;17.226;2023-01-31T11:58:00;101490.08;;;3.94;80.32
44872;BME280;30602;51.060;17.226;2023-01-31T12:01:19;101475.16;;;3.99;79.99
44872;BME280;30602;51.060;17.226;2023-01-31T12:04:38;101482.53;;;4.08;80.18
44872;BME280;30602;51.060;17.226;2023-01-31T12:07:50;101480.64;;;4.02;80.22
44872;BME280;30602;51.060;17.226;2023-01-31T12:11:30;101477.34;;;3.97;80.92
44872;BME280;30602;51.060;17.226;2023-01-31T12:14:40;101481.98;;;3.81;82.83
44872;BME280;30602;51.060;17.226;2023-01-31T12:18:20;101473.38;;;3.81;83.59
44872;BME280;30602;51.060;17.226;2023-01-31T12:35:38;101454.92;;;3.45;89.34
44872;BME280;30602;51.060;17.226;2023-01-31T12:42:26;101445.86;;;3.47;90.26
44872;BME280;30602;51.060;17.226;2023-01-31T13:07:21;101417.69;;;3.83;87.30
44872;BME280;30602;51.060;17.226;2023-01-31T13:10:38;101412.98;;;3.83;86.81
44872;BME280;30602;51.060;17.226;2023-01-31T13:14:00;101406.25;;;3.73;86.95
44872;BME280;30602;51.060;17.226;2023-01-31T13:17:16;101413.91;;;3.72;86.80
44872;BME280;30602;51.060;17.226;2023-01-31T13:20:51;101409.63;;;3.78;87.46
44872;BME280;30602;51.060;17.226;2023-01-31T13:24:20;101406.23;;;3.64;88.04
44872;BME280;30602;51.060;17.226;2023-01-31T13:31:43;101404.56;;;3.59;90.41
44872;BME280;30602;51.060;17.226;2023-01-31T13:35:22;101401.02;;;3.54;90.25
44872;BME280;30602;51.060;17.226;2023-01-31T13:38:38;101392.71;;;3.57;90.05
44872;BME280;30602;51.060;17.226;2023-01-31T13:41:53;101379.58;;;3.55;90.51
44872;BME280;30602;51.060;17.226;2023-01-31T13:45:06;101375.52;;;3.63;90.03
44872;BME280;30602;51.060;17.226;2023-01-31T13:51:48;101363.45;;;3.62;88.69
44872;BME280;30602;51.060;17.226;2023-01-31T13:55:07;101360.10;;;3.67;88.54
44872;BME280;30602;51.060;17.226;2023-01-31T13:58:34;101359.96;;;3.57;88.19
44872;BME280;30602;51.060;17.226;2023-01-31T14:01:48;101359.01;;;3.63;87.74
44872;BME280;30602;51.060;17.226;2023-01-31T14:08:57;101358.92;;;3.63;87.91
44872;BME280;30602;51.060;17.226;2023-01-31T14:19:29;101351.12;;;3.55;88.65
44872;BME280;30602;51.060;17.226;2023-01-31T14:29:42;101341.33;;;3.54;88.82
44872;BME280;30602;51.060;17.226;2023-01-31T14:36:43;101331.33;;;3.56;89.97
44872;BME280;30602;51.060;17.226;2023-01-31T14:43:35;101328.91;;;3.47;91.67
44872;BME280;30602;51.060;17.226;2023-01-31T14:57:58;101303.52;;;3.28;93.18
44872;BME280;30602;51.060;17.226;2023-01-31T15:01:08;101305.80;;;3.27;93.56
44872;BME280;30602;51.060;17.226;2023-01-31T15:04:40;101308.22;;;3.26;93.53
44872;BME280;30602;51.060;17.226;2023-01-31T15:07:57;101309.59;;;3.24;93.52
44872;BME280;30602;51.060;17.226;2023-01-31T15:18:32;101304.41;;;3.18;94.68
44872;BME280;30602;51.060;17.226;2023-01-31T15:21:50;101303.34;;;3.10;95.42
44872;BME280;30602;51.060;17.226;2023-01-31T15:25:17;101303.91;;;3.17;95.74
44872;BME280;30602;51.060;17.226;2023-01-31T15:28:32;101302.60;;;3.21;95.72
44872;BME280;30602;51.060;17.226;2023-01-31T15:32:20;101300.03;;;3.20;95.50
44872;BME280;30602;51.060;17.226;2023-01-31T15:39:42;101289.66;;;3.13;95.79
44872;BME280;30602;51.060;17.226;2023-01-31T15:43:23;101293.31;;;3.21;96.29
44872;BME280;30602;51.060;17.226;2023-01-31T15:46:37;101287.02;;;3.16;96.12
44872;BME280;30602;51.060;17.226;2023-01-31T15:49:49;101287.83;;;3.16;96.40
44872;BME280;30602;51.060;17.226;2023-01-31T15:53:06;101288.43;;;3.10;96.66
44872;BME280;30602;51.060;17.226;2023-01-31T15:56:23;101283.84;;;3.08;96.80
44872;BME280;30602;51.060;17.226;2023-01-31T15:59:33;101284.34;;;3.07;96.52
44872;BME280;30602;51.060;17.226;2023-01-31T16:02:45;101275.89;;;3.07;96.89
44872;BME280;30602;51.060;17.226;2023-01-31T16:06:22;101285.45;;;3.05;97.01
44872;BME280;30602;51.060;17.226;2023-01-31T16:09:35;101282.99;;;3.05;97.18
44872;BME280;30602;51.060;17.226;2023-01-31T16:13:06;101279.97;;;2.96;97.49
44872;BME280;30602;51.060;17.226;2023-01-31T16:16:29;101273.48;;;2.87;97.76
44872;BME280;30602;51.060;17.226;2023-01-31T16:19:41;101278.69;;;2.89;97.74
44872;BME280;30602;51.060;17.226;2023-01-31T16:22:55;101275.56;;;2.82;97.63
44872;BME280;30602;51.060;17.226;2023-01-31T16:26:27;101269.90;;;2.83;97.68
44872;BME280;30602;51.060;17.226;2023-01-31T16:29:46;101268.63;;;2.70;97.91
44872;BME280;30602;51.060;17.226;2023-01-31T16:33:03;101269.53;;;2.70;98.08
44872;BME280;30602;51.060;17.226;2023-01-31T16:36:18;101264.37;;;2.63;98.22
44872;BME280;30602;51.060;17.226;2023-01-31T16:39:34;101260.55;;;2.64;98.20
44872;BME280;30602;51.060;17.226;2023-01-31T16:42:44;101247.30;;;2.60;98.53
44872;BME280;30602;51.060;17.226;2023-01-31T16:46:05;101238.39;;;2.60;98.57
44872;BME280;30602;51.060;17.226;2023-01-31T16:49:24;101236.72;;;2.56;99.10
44872;BME280;30602;51.060;17.226;2023-01-31T16:53:37;101225.82;;;2.47;99.46
44872;BME280;30602;51.060;17.226;2023-01-31T17:00:39;101223.26;;;2.41;100.00
44872;BME280;30602;51.060;17.226;2023-01-31T17:04:16;101210.17;;;2.31;100.00
44872;BME280;30602;51.060;17.226;2023-01-31T17:07:35;101214.06;;;2.34;100.00
44872;BME280;30602;51.060;17.226;2023-01-31T17:10:47;101202.45;;;2.35;100.00
44872;BME280;30602;51.060;17.226;2023-01-31T17:14:09;101194.23;;;2.39;100.00
44872;BME280;30602;51.060;17.226;2023-01-31T17:17:17;101187.57;;;2.33;100.00
44872;BME280;30602;51.060;17.226;2023-01-31T17:20:25;101189.00;;;2.31;100.00
44872;BME280;30602;51.060;17.226;2023-01-31T17:23:35;101182.70;;;2.32;100.00
44872;BME280;30602;51.060;17.226;2023-01-31T17:26:45;101170.34;;;2.34;100.00
44872;BME280;30602;51.060;17.226;2023-01-31T17:30:40;101164.91;;;2.36;100.00
44872;BME280;30602;51.060;17.226;2023-01-31T17:33:51;101162.05;;;2.39;100.00
44872;BME280;30602;51.060;17.226;2023-01-31T17:37:42;101159.07;;;2.37;100.00
44872;BME280;30602;51.060;17.226;2023-01-31T17:40:53;101156.57;;;2.41;100.00
44872;BME280;30602;51.060;17.226;2023-01-31T17:44:27;101143.23;;;2.40;99.93
44872;BME280;30602;51.060;17.226;2023-01-31T17:48:03;101142.92;;;2.49;99.75
44872;BME280;30602;51.060;17.226;2023-01-31T17:51:33;101131.70;;;2.48;99.43
44872;BME280;30602;51.060;17.226;2023-01-31T17:54:42;101137.60;;;2.50;99.25
44872;BME280;30602;51.060;17.226;2023-01-31T17:57:56;101132.77;;;2.47;99.30
44872;BME280;30602;51.060;17.226;2023-01-31T18:01:11;101124.88;;;2.45;99.36
44872;BME280;30602;51.060;17.226;2023-01-31T18:04:20;101122.00;;;2.53;99.30
44872;BME280;30602;51.060;17.226;2023-01-31T18:07:29;101114.57;;;2.60;98.78
44872;BME280;30602;51.060;17.226;2023-01-31T18:10:37;101110.48;;;2.50;98.82
44872;BME280;30602;51.060;17.226;2023-01-31T18:13:53;101116.15;;;2.59;99.09
44872;BME280;30602;51.060;17.226;2023-01-31T18:17:10;101118.60;;;2.63;98.95
44872;BME280;30602;51.060;17.226;2023-01-31T18:20:25;101105.76;;;2.63;99.08
44872;BME280;30602;51.060;17.226;2023-01-31T18:23:40;101105.91;;;2.66;99.02
44872;BME280;30602;51.060;17.226;2023-01-31T18:26:52;101092.95;;;2.63;99.06
44872;BME280;30602;51.060;17.226;2023-01-31T18:30:13;101108.66;;;2.65;99.22
44872;BME280;30602;51.060;17.226;2023-01-31T18:33:25;101105.38;;;2.68;99.18
44872;BME280;30602;51.060;17.226;2023-01-31T18:37:01;101105.24;;;2.71;99.26
44872;BME280;30602;51.060;17.226;2023-01-31T18:40:38;101101.25;;;2.70;99.36
44872;BME280;30602;51.060;17.226;2023-01-31T18:44:37;101088.73;;;2.72;99.61
44872;BME280;30602;51.060;17.226;2023-01-31T18:47:57;101086.09;;;2.81;99.21
44872;BME280;30602;51.060;17.226;2023-01-31T18:51:10;101058.21;;;2.85;99.04
44872;BME280;30602;51.060;17.226;2023-01-31T18:54:34;101064.63;;;2.91;99.12
44872;BME280;30602;51.060;17.226;2023-01-31T18:57:45;101064.97;;;3.02;98.66
44872;BME280;30602;51.060;17.226;2023-01-31T19:01:15;101064.73;;;3.10;98.26
44872;BME280;30602;51.060;17.226;2023-01-31T19:04:24;101060.32;;;3.09;97.27
44872;BME280;30602;51.060;17.226;2023-01-31T19:07:35;101076.56;;;3.24;96.75
44872;BME280;30602;51.060;17.226;2023-01-31T19:11:24;101075.62;;;3.33;96.20
44872;BME280;30602;51.060;17.226;2023-01-31T19:14:52;101080.10;;;3.31;95.90
44872;BME280;30602;51.060;17.226;2023-01-31T19:18:31;101066.17;;;3.33;95.28
44872;BME280;30602;51.060;17.226;2023-01-31T19:21:54;101062.23;;;3.35;94.90
44872;BME280;30602;51.060;17.226;2023-01-31T19:25:28;101057.84;;;3.35;95.28
44872;BME280;30602;51.060;17.226;2023-01-31T19:28:37;101062.91;;;3.32;96.11
44872;BME280;30602;51.060;17.226;2023-01-31T19:31:46;101044.85;;;3.36;96.64
44872;BME280;30602;51.060;17.226;2023-01-31T19:34:57;101029.09;;;3.35;96.39
44872;BME280;30602;51.060;17.226;2023-01-31T19:38:25;101034.32;;;3.43;96.48
44872;BME280;30602;51.060;17.226;2023-01-31T19:41:49;101024.00;;;3.43;95.76
44872;BME280;30602;51.060;17.226;2023-01-31T19:44:58;101023.78;;;3.48;95.31
44872;BME280;30602;51.060;17.226;2023-01-31T19:48:09;101024.39;;;3.51;95.24
44872;BME280;30602;51.060;17.226;2023-01-31T19:51:19;101027.08;;;3.59;94.81
44872;BME280;30602;51.060;17.226;2023-01-31T19:54:31;101019.27;;;3.67;94.53
44872;BME280;30602;51.060;17.226;2023-01-31T19:58:17;101012.46;;;3.71;94.15
44872;BME280;30602;51.060;17.226;2023-01-31T20:01:29;100990.17;;;3.60;93.82
44872;BME280;30602;51.060;17.226;2023-01-31T20:04:39;101000.52;;;3.74;93.97
44872;BME280;30602;51.060;17.226;2023-01-31T20:07:47;100993.17;;;3.76;94.22
44872;BME280;30602;51.060;17.226;2023-01-31T20:11:21;100988.63;;;3.73;94.31
44872;BME280;30602;51.060;17.226;2023-01-31T20:14:56;100994.76;;;3.70;94.29
44872;BME280;30602;51.060;17.226;2023-01-31T20:18:07;100996.50;;;3.72;94.36
44872;BME280;30602;51.060;17.226;2023-01-31T20:21:20;100984.22;;;3.73;94.69
44872;BME280;30602;51.060;17.226;2023-01-31T20:24:35;100982.58;;;3.72;94.95
44872;BME280;30602;51.060;17.226;2023-01-31T20:27:44;100979.52;;;3.74;94.99
44872;BME280;30602;51.060;17.226;2023-01-31T20:30:53;100996.48;;;3.70;94.68
44872;BME280;30602;51.060;17.226;2023-01-31T20:34:28;100994.74;;;3.67;94.57
44872;BME280;30602;51.060;17.226;2023-01-31T20:37:47;100995.02;;;3.74;94.59
44872;BME280;30602;51.060;17.226;2023-01-31T20:41:06;100988.48;;;3.77;94.34
44872;BME280;30602;51.060;17.226;2023-01-31T20:44:19;100994.30;;;3.88;94.01